sensor_id;sensor_type;location;lat;lon;timestamp;pressure;altitude;pressure_sealevel;temperature;humidity
75788;BME280;64406;50.024;14.492;2023-12-29T00:01:48;97859.59;;;6.77;82.48
75788;BME280;64406;50.024;14.492;2023-12-29T00:04:13;97860.13;;;6.74;81.71
75788;BME280;64406;50.024;14.492;2023-12-29T00:06:40;97855.03;;;6.78;81.76
75788;BME280;64406;50.024;14.492;2023-12-29T00:09:06;97854.75;;;6.79;81.77
75788;BME280;64406;50.024;14.492;2023-12-29T00:11:33;97855.56;;;6.80;81.73
75788;BME280;64406;50.024;14.492;2023-12-29T00:13:59;97862.03;;;6.89;81.68
75788;BME280;64406;50.024;14.492;2023-12-29T00:16:27;97866.03;;;6.92;81.48
75788;BME280;64406;50.024;14.492;2023-12-29T00:18:53;97849.97;;;6.87;82.17
75788;BME280;64406;50.024;14.492;2023-12-29T00:21:18;97850.53;;;6.89;81.54
75788;BME280;64406;50.024;14.492;2023-12-29T00:23:44;97855.84;;;6.84;81.92
75788;BME280;64406;50.024;14.492;2023-12-29T00:26:10;97848.09;;;6.92;82.30
75788;BME280;64406;50.024;14.492;2023-12-29T00:28:35;97862.84;;;6.90;82.37
75788;BME280;64406;50.024;14.492;2023-12-29T00:31:06;97857.50;;;6.95;81.85
75788;BME280;64406;50.024;14.492;2023-12-29T00:33:32;97856.94;;;6.93;82.10
75788;BME280;64406;50.024;14.492;2023-12-29T00:35:58;97861.22;;;6.89;82.62
75788;BME280;64406;50.024;14.492;2023-12-29T00:38:27;97865.75;;;6.83;82.80
75788;BME280;64406;50.024;14.492;2023-12-29T00:40:53;97852.66;;;6.81;83.40
75788;BME280;64406;50.024;14.492;2023-12-29T00:43:19;97855.31;;;6.87;82.76
75788;BME280;64406;50.024;14.492;2023-12-29T00:45:45;97858.81;;;6.87;82.09
75788;BME280;64406;50.024;14.492;2023-12-29T00:48:10;97853.19;;;6.89;82.89
75788;BME280;64406;50.024;14.492;2023-12-29T00:50:36;97849.97;;;6.87;82.18
75788;BME280;64406;50.024;14.492;2023-12-29T00:53:04;97842.50;;;6.99;81.46
75788;BME280;64406;50.024;14.492;2023-12-29T00:55:30;97848.16;;;7.02;82.15
75788;BME280;64406;50.024;14.492;2023-12-29T00:57:55;97850.28;;;7.11;81.06
75788;BME280;64406;50.024;14.492;2023-12-29T01:00:21;97855.44;;;7.27;81.40
75788;BME280;64406;50.024;14.492;2023-12-29T01:02:47;97855.13;;;7.24;81.60
75788;BME280;64406;50.024;14.492;2023-12-29T01:05:16;97859.69;;;7.23;81.08
75788;BME280;64406;50.024;14.492;2023-12-29T01:07:42;97861.06;;;7.36;81.00
75788;BME280;64406;50.024;14.492;2023-12-29T01:10:08;97849.81;;;7.34;80.64
75788;BME280;64406;50.024;14.492;2023-12-29T01:12:34;97861.59;;;7.43;80.51
75788;BME280;64406;50.024;14.492;2023-12-29T01:14:59;97861.06;;;7.36;81.09
75788;BME280;64406;50.024;14.492;2023-12-29T01:17:25;97860.53;;;7.34;81.70
75788;BME280;64406;50.024;14.492;2023-12-29T01:19:53;97859.16;;;7.31;81.58
75788;BME280;64406;50.024;14.492;2023-12-29T01:22:18;97854.09;;;7.35;81.53
75788;BME280;64406;50.024;14.492;2023-12-29T01:24:44;97850.34;;;7.41;81.46
75788;BME280;64406;50.024;14.492;2023-12-29T01:27:09;97849.78;;;7.44;80.78
75788;BME280;64406;50.024;14.492;2023-12-29T01:29:35;97862.38;;;7.39;81.33
75788;BME280;64406;50.024;14.492;2023-12-29T01:32:00;97867.47;;;7.35;81.09
75788;BME280;64406;50.024;14.492;2023-12-29T01:34:29;97869.34;;;7.45;80.90
75788;BME280;64406;50.024;14.492;2023-12-29T01:36:58;97868.56;;;7.49;80.83
75788;BME280;64406;50.024;14.492;2023-12-29T01:39:24;97863.22;;;7.54;81.47
75788;BME280;64406;50.024;14.492;2023-12-29T01:41:49;97859.72;;;7.59;81.30
75788;BME280;64406;50.024;14.492;2023-12-29T01:44:20;97861.88;;;7.57;81.71
75788;BME280;64406;50.024;14.492;2023-12-29T01:46:50;97862.66;;;7.62;81.46
75788;BME280;64406;50.024;14.492;2023-12-29T01:49:17;97858.41;;;7.67;81.45
75788;BME280;64406;50.024;14.492;2023-12-29T01:51:44;97869.09;;;7.72;81.07
75788;BME280;64406;50.024;14.492;2023-12-29T01:54:14;97868.84;;;7.73;81.06
75788;BME280;64406;50.024;14.492;2023-12-29T01:56:41;97864.53;;;7.72;81.22
75788;BME280;64406;50.024;14.492;2023-12-29T01:59:07;97851.16;;;7.62;81.98
75788;BME280;64406;50.024;14.492;2023-12-29T02:01:33;97844.97;;;7.56;82.78
75788;BME280;64406;50.024;14.492;2023-12-29T02:04:00;97837.47;;;7.48;83.54
75788;BME280;64406;50.024;14.492;2023-12-29T02:06:26;97831.84;;;7.34;83.21
75788;BME280;64406;50.024;14.492;2023-12-29T02:08:52;97831.84;;;7.24;84.39
75788;BME280;64406;50.024;14.492;2023-12-29T02:11:18;97835.59;;;7.39;83.76
75788;BME280;64406;50.024;14.492;2023-12-29T02:13:44;97832.88;;;7.18;84.83
75788;BME280;64406;50.024;14.492;2023-12-29T02:16:23;97832.63;;;7.09;85.84
75788;BME280;64406;50.024;14.492;2023-12-29T02:18:53;97807.97;;;7.02;85.94
75788;BME280;64406;50.024;14.492;2023-12-29T02:21:24;97803.69;;;6.96;86.02
75788;BME280;64406;50.024;14.492;2023-12-29T02:23:50;97798.56;;;6.90;86.29
75788;BME280;64406;50.024;14.492;2023-12-29T02:26:16;97796.69;;;6.90;86.97
75788;BME280;64406;50.024;14.492;2023-12-29T02:28:51;97769.38;;;6.83;86.76
75788;BME280;64406;50.024;14.492;2023-12-29T02:31:20;97794.81;;;6.80;87.61
75788;BME280;64406;50.024;14.492;2023-12-29T02:33:50;97787.31;;;6.67;87.29
75788;BME280;64406;50.024;14.492;2023-12-29T02:36:18;97793.44;;;6.73;87.58
75788;BME280;64406;50.024;14.492;2023-12-29T02:38:44;97802.31;;;6.84;87.01
75788;BME280;64406;50.024;14.492;2023-12-29T02:41:11;97787.63;;;6.96;86.74
75788;BME280;64406;50.024;14.492;2023-12-29T02:43:39;97778.78;;;7.06;85.71
75788;BME280;64406;50.024;14.492;2023-12-29T02:46:04;97781.47;;;7.01;85.80
75788;BME280;64406;50.024;14.492;2023-12-29T02:48:30;97773.69;;;6.99;86.32
75788;BME280;64406;50.024;14.492;2023-12-29T02:50:55;97765.91;;;6.98;85.88
75788;BME280;64406;50.024;14.492;2023-12-29T02:53:21;97761.13;;;7.00;85.14
75788;BME280;64406;50.024;14.492;2023-12-29T02:55:47;97767.53;;;6.94;85.36
75788;BME280;64406;50.024;14.492;2023-12-29T02:58:12;97774.75;;;6.93;85.51
75788;BME280;64406;50.024;14.492;2023-12-29T03:00:38;97783.84;;;6.92;85.85
75788;BME280;64406;50.024;14.492;2023-12-29T03:03:04;97791.09;;;7.02;85.44
75788;BME280;64406;50.024;14.492;2023-12-29T03:05:29;97793.53;;;7.08;85.14
75788;BME280;64406;50.024;14.492;2023-12-29T03:07:55;97776.66;;;7.13;83.95
75788;BME280;64406;50.024;14.492;2023-12-29T03:10:20;97774.53;;;7.20;84.26
75788;BME280;64406;50.024;14.492;2023-12-29T03:12:46;97764.88;;;7.29;83.27
75788;BME280;64406;50.024;14.492;2023-12-29T03:15:11;97771.03;;;7.40;82.77
75788;BME280;64406;50.024;14.492;2023-12-29T03:17:37;97752.81;;;7.42;81.82
75788;BME280;64406;50.024;14.492;2023-12-29T03:20:03;97753.06;;;7.41;81.89
75788;BME280;64406;50.024;14.492;2023-12-29T03:22:30;97756.56;;;7.36;82.55
75788;BME280;64406;50.024;14.492;2023-12-29T03:24:55;97752.28;;;7.35;82.17
75788;BME280;64406;50.024;14.492;2023-12-29T03:27:21;97762.47;;;7.28;82.42
75788;BME280;64406;50.024;14.492;2023-12-29T03:29:47;97748.78;;;7.24;81.95
75788;BME280;64406;50.024;14.492;2023-12-29T03:32:12;97743.69;;;7.23;81.59
75788;BME280;64406;50.024;14.492;2023-12-29T03:34:38;97741.03;;;7.18;82.18
75788;BME280;64406;50.024;14.492;2023-12-29T03:37:04;97737.00;;;7.25;81.51
75788;BME280;64406;50.024;14.492;2023-12-29T03:39:29;97722.28;;;7.18;81.13
75788;BME280;64406;50.024;14.492;2023-12-29T03:41:55;97720.16;;;7.15;81.85
75788;BME280;64406;50.024;14.492;2023-12-29T03:44:20;97717.75;;;7.08;82.13
75788;BME280;64406;50.024;14.492;2023-12-29T03:46:46;97716.13;;;7.02;81.81
75788;BME280;64406;50.024;14.492;2023-12-29T03:49:12;97717.72;;;6.93;82.53
75788;BME280;64406;50.024;14.492;2023-12-29T03:51:37;97722.28;;;7.02;81.50
75788;BME280;64406;50.024;14.492;2023-12-29T03:54:03;97719.06;;;7.00;81.73
75788;BME280;64406;50.024;14.492;2023-12-29T03:56:29;97726.28;;;7.05;82.02
75788;BME280;64406;50.024;14.492;2023-12-29T03:58:54;97727.09;;;6.90;82.52
75788;BME280;64406;50.024;14.492;2023-12-29T04:01:20;97722.81;;;6.89;82.20
75788;BME280;64406;50.024;14.492;2023-12-29T04:03:46;97726.03;;;6.96;82.25
75788;BME280;64406;50.024;14.492;2023-12-29T04:06:12;97705.94;;;6.89;82.40
75788;BME280;64406;50.024;14.492;2023-12-29T04:08:38;97697.09;;;6.83;82.06
75788;BME280;64406;50.024;14.492;2023-12-29T04:11:04;97701.66;;;6.93;82.28
75788;BME280;64406;50.024;14.492;2023-12-29T04:13:30;97701.13;;;6.91;82.48
75788;BME280;64406;50.024;14.492;2023-12-29T04:15:56;97689.06;;;7.03;81.72
75788;BME280;64406;50.024;14.492;2023-12-29T04:18:23;97689.88;;;7.04;81.28
75788;BME280;64406;50.024;14.492;2023-12-29T04:20:49;97677.03;;;7.01;81.29
75788;BME280;64406;50.024;14.492;2023-12-29T04:23:15;97670.59;;;7.07;81.85
75788;BME280;64406;50.024;14.492;2023-12-29T04:25:41;97654.78;;;7.16;81.35
75788;BME280;64406;50.024;14.492;2023-12-29T04:28:07;97660.66;;;7.13;81.67
75788;BME280;64406;50.024;14.492;2023-12-29T04:30:34;97660.94;;;7.11;81.37
75788;BME280;64406;50.024;14.492;2023-12-29T04:32:59;97651.84;;;7.12;81.47
75788;BME280;64406;50.024;14.492;2023-12-29T04:35:25;97655.06;;;7.04;81.70
75788;BME280;64406;50.024;14.492;2023-12-29T04:37:51;97635.25;;;7.05;81.85
75788;BME280;64406;50.024;14.492;2023-12-29T04:40:17;97626.41;;;7.15;81.34
75788;BME280;64406;50.024;14.492;2023-12-29T04:42:42;97638.72;;;7.16;81.02
75788;BME280;64406;50.024;14.492;2023-12-29T04:45:08;97640.84;;;7.24;80.59
75788;BME280;64406;50.024;14.492;2023-12-29T04:47:33;97615.94;;;7.18;80.54
75788;BME280;64406;50.024;14.492;2023-12-29T04:49:59;97628.81;;;7.16;80.55
75788;BME280;64406;50.024;14.492;2023-12-29T04:52:25;97632.56;;;7.15;80.93
75788;BME280;64406;50.024;14.492;2023-12-29T04:54:51;97618.66;;;6.98;81.42
75788;BME280;64406;50.024;14.492;2023-12-29T04:57:16;97624.81;;;6.93;82.43
75788;BME280;64406;50.024;14.492;2023-12-29T04:59:42;97619.72;;;6.87;82.99
75788;BME280;64406;50.024;14.492;2023-12-29T05:02:08;97621.09;;;6.94;82.44
75788;BME280;64406;50.024;14.492;2023-12-29T05:04:33;97621.34;;;6.88;82.91
75788;BME280;64406;50.024;14.492;2023-12-29T05:06:59;97620.28;;;6.89;82.72
75788;BME280;64406;50.024;14.492;2023-12-29T05:09:25;97614.66;;;6.80;83.32
75788;BME280;64406;50.024;14.492;2023-12-29T05:11:50;97636.34;;;6.84;82.97
75788;BME280;64406;50.024;14.492;2023-12-29T05:14:16;97633.38;;;6.80;82.87
75788;BME280;64406;50.024;14.492;2023-12-29T05:16:42;97637.69;;;6.81;83.20
75788;BME280;64406;50.024;14.492;2023-12-29T05:19:08;97628.59;;;6.87;82.57
75788;BME280;64406;50.024;14.492;2023-12-29T05:21:33;97649.72;;;7.09;82.02
75788;BME280;64406;50.024;14.492;2023-12-29T05:23:59;97626.41;;;7.20;80.74
75788;BME280;64406;50.024;14.492;2023-12-29T05:26:25;97655.03;;;7.24;80.88
75788;BME280;64406;50.024;14.492;2023-12-29T05:28:51;97653.16;;;7.30;79.95
75788;BME280;64406;50.024;14.492;2023-12-29T05:31:17;97637.06;;;7.30;79.84
75788;BME280;64406;50.024;14.492;2023-12-29T05:33:44;97643.22;;;7.30;80.29
75788;BME280;64406;50.024;14.492;2023-12-29T05:36:10;97643.50;;;7.34;79.66
75788;BME280;64406;50.024;14.492;2023-12-29T05:38:37;97642.16;;;7.31;79.49
75788;BME280;64406;50.024;14.492;2023-12-29T05:41:03;97641.06;;;7.38;79.24
75788;BME280;64406;50.024;14.492;2023-12-29T05:43:33;97650.16;;;7.47;78.92
75788;BME280;64406;50.024;14.492;2023-12-29T05:46:00;97639.41;;;7.52;77.94
75788;BME280;64406;50.024;14.492;2023-12-29T05:48:26;97650.97;;;7.47;78.65
75788;BME280;64406;50.024;14.492;2023-12-29T05:50:52;97653.38;;;7.49;78.89
75788;BME280;64406;50.024;14.492;2023-12-29T05:53:18;97656.63;;;7.41;78.97
75788;BME280;64406;50.024;14.492;2023-12-29T05:55:44;97642.41;;;7.40;78.76
75788;BME280;64406;50.024;14.492;2023-12-29T05:58:11;97628.47;;;7.38;79.64
75788;BME280;64406;50.024;14.492;2023-12-29T06:00:37;97642.66;;;7.44;79.25
75788;BME280;64406;50.024;14.492;2023-12-29T06:03:03;97640.50;;;7.51;78.54
75788;BME280;64406;50.024;14.492;2023-12-29T06:05:32;97652.84;;;7.47;78.76
75788;BME280;64406;50.024;14.492;2023-12-29T06:07:58;97649.34;;;7.51;78.83
75788;BME280;64406;50.024;14.492;2023-12-29T06:10:24;97652.34;;;7.40;79.85
75788;BME280;64406;50.024;14.492;2023-12-29T06:12:49;97651.50;;;7.44;79.57
75788;BME280;64406;50.024;14.492;2023-12-29T06:15:15;97653.38;;;7.39;80.17
75788;BME280;64406;50.024;14.492;2023-12-29T06:17:41;97649.09;;;7.32;79.94
75788;BME280;64406;50.024;14.492;2023-12-29T06:20:07;97656.63;;;7.30;80.16
75788;BME280;64406;50.024;14.492;2023-12-29T06:22:33;97650.75;;;7.28;79.94
75788;BME280;64406;50.024;14.492;2023-12-29T06:24:59;97638.16;;;7.34;79.83
75788;BME280;64406;50.024;14.492;2023-12-29T06:27:25;97646.72;;;7.36;79.53
75788;BME280;64406;50.024;14.492;2023-12-29T06:29:51;97638.66;;;7.36;79.20
75788;BME280;64406;50.024;14.492;2023-12-29T06:32:16;97628.47;;;7.38;79.01
75788;BME280;64406;50.024;14.492;2023-12-29T06:34:42;97639.19;;;7.38;78.39
75788;BME280;64406;50.024;14.492;2023-12-29T06:37:09;97624.47;;;7.30;78.44
75788;BME280;64406;50.024;14.492;2023-12-29T06:39:34;97614.28;;;7.32;78.88
75788;BME280;64406;50.024;14.492;2023-12-29T06:42:00;97621.28;;;7.28;79.14
75788;BME280;64406;50.024;14.492;2023-12-29T06:44:25;97633.88;;;7.33;78.85
75788;BME280;64406;50.024;14.492;2023-12-29T06:46:51;97631.94;;;7.39;78.16
75788;BME280;64406;50.024;14.492;2023-12-29T06:49:16;97637.06;;;7.40;78.75
75788;BME280;64406;50.024;14.492;2023-12-29T06:51:42;97642.94;;;7.42;78.73
75788;BME280;64406;50.024;14.492;2023-12-29T06:54:09;97650.41;;;7.45;78.41
75788;BME280;64406;50.024;14.492;2023-12-29T06:56:34;97651.22;;;7.51;77.87
75788;BME280;64406;50.024;14.492;2023-12-29T06:59:00;97658.44;;;7.50;78.37
75788;BME280;64406;50.024;14.492;2023-12-29T07:01:25;97656.56;;;7.51;78.45
75788;BME280;64406;50.024;14.492;2023-12-29T07:03:51;97650.13;;;7.62;77.90
75788;BME280;64406;50.024;14.492;2023-12-29T07:06:17;97647.16;;;7.58;77.90
75788;BME280;64406;50.024;14.492;2023-12-29T07:08:42;97647.16;;;7.58;77.67
75788;BME280;64406;50.024;14.492;2023-12-29T07:11:11;97649.09;;;7.53;77.06
75788;BME280;64406;50.024;14.492;2023-12-29T07:13:37;97636.72;;;7.57;76.87
75788;BME280;64406;50.024;14.492;2023-12-29T07:16:04;97654.38;;;7.68;76.63
75788;BME280;64406;50.024;14.492;2023-12-29T07:18:30;97640.47;;;7.66;76.29
75788;BME280;64406;50.024;14.492;2023-12-29T07:20:55;97656.56;;;7.61;76.70
75788;BME280;64406;50.024;14.492;2023-12-29T07:23:21;97659.47;;;7.64;76.17
75788;BME280;64406;50.024;14.492;2023-12-29T07:25:48;97654.91;;;7.65;76.00
75788;BME280;64406;50.024;14.492;2023-12-29T07:28:14;97661.91;;;7.61;76.63
75788;BME280;64406;50.024;14.492;2023-12-29T07:30:39;97657.38;;;7.56;76.93
75788;BME280;64406;50.024;14.492;2023-12-29T07:33:05;97660.56;;;7.58;76.35
75788;BME280;64406;50.024;14.492;2023-12-29T07:35:31;97635.13;;;7.61;76.40
75788;BME280;64406;50.024;14.492;2023-12-29T07:37:57;97661.63;;;7.62;75.94
75788;BME280;64406;50.024;14.492;2023-12-29T07:40:23;97664.84;;;7.64;75.64
75788;BME280;64406;50.024;14.492;2023-12-29T07:42:48;97684.16;;;7.61;75.20
75788;BME280;64406;50.024;14.492;2023-12-29T07:45:16;97671.56;;;7.62;75.38
75788;BME280;64406;50.024;14.492;2023-12-29T07:47:42;97670.47;;;7.63;74.69
75788;BME280;64406;50.024;14.492;2023-12-29T07:50:08;97680.38;;;7.68;74.46
75788;BME280;64406;50.024;14.492;2023-12-29T07:52:34;97675.84;;;7.68;74.40
75788;BME280;64406;50.024;14.492;2023-12-29T07:55:00;97681.47;;;7.61;74.82
75788;BME280;64406;50.024;14.492;2023-12-29T07:57:25;97669.97;;;7.46;75.70
75788;BME280;64406;50.024;14.492;2023-12-29T07:59:51;97680.44;;;7.47;75.79
75788;BME280;64406;50.024;14.492;2023-12-29T08:02:17;97686.34;;;7.44;75.93
75788;BME280;64406;50.024;14.492;2023-12-29T08:04:42;97683.38;;;7.46;76.29
75788;BME280;64406;50.024;14.492;2023-12-29T08:07:10;97693.03;;;7.47;76.08
75788;BME280;64406;50.024;14.492;2023-12-29T08:09:36;97691.44;;;7.41;76.26
75788;BME280;64406;50.024;14.492;2023-12-29T08:12:01;97702.97;;;7.46;76.17
75788;BME280;64406;50.024;14.492;2023-12-29T08:14:27;97697.84;;;7.50;75.08
75788;BME280;64406;50.024;14.492;2023-12-29T08:16:53;97700.25;;;7.51;75.43
75788;BME280;64406;50.024;14.492;2023-12-29T08:19:19;97708.00;;;7.58;74.57
75788;BME280;64406;50.024;14.492;2023-12-29T08:21:44;97706.94;;;7.64;74.19
75788;BME280;64406;50.024;14.492;2023-12-29T08:24:10;97708.22;;;7.77;73.89
75788;BME280;64406;50.024;14.492;2023-12-29T08:26:43;97723.50;;;7.86;72.52
75788;BME280;64406;50.024;14.492;2023-12-29T08:29:09;97717.03;;;7.93;72.42
75788;BME280;64406;50.024;14.492;2023-12-29T08:31:34;97729.88;;;8.01;71.90
75788;BME280;64406;50.024;14.492;2023-12-29T08:34:00;97734.41;;;8.05;71.95
75788;BME280;64406;50.024;14.492;2023-12-29T08:36:26;97745.41;;;8.09;71.90
75788;BME280;64406;50.024;14.492;2023-12-29T08:38:52;97756.94;;;8.09;71.76
75788;BME280;64406;50.024;14.492;2023-12-29T08:41:18;97757.44;;;8.11;71.71
75788;BME280;64406;50.024;14.492;2023-12-29T08:43:44;97769.81;;;8.12;71.36
75788;BME280;64406;50.024;14.492;2023-12-29T08:46:10;97777.03;;;8.17;71.70
75788;BME280;64406;50.024;14.492;2023-12-29T08:48:35;97777.31;;;8.15;72.27
75788;BME280;64406;50.024;14.492;2023-12-29T08:51:01;97780.25;;;8.19;71.58
75788;BME280;64406;50.024;14.492;2023-12-29T08:53:27;97787.47;;;8.24;71.23
75788;BME280;64406;50.024;14.492;2023-12-29T08:55:52;97798.47;;;8.22;72.50
75788;BME280;64406;50.024;14.492;2023-12-29T08:58:18;97786.94;;;8.16;72.21
75788;BME280;64406;50.024;14.492;2023-12-29T09:00:43;97789.13;;;8.14;72.25
75788;BME280;64406;50.024;14.492;2023-12-29T09:03:09;97777.59;;;8.14;72.40
75788;BME280;64406;50.024;14.492;2023-12-29T09:05:35;97774.91;;;8.14;72.18
75788;BME280;64406;50.024;14.492;2023-12-29T09:08:00;97775.69;;;8.14;71.62
75788;BME280;64406;50.024;14.492;2023-12-29T09:10:26;97783.19;;;8.17;72.27
75788;BME280;64406;50.024;14.492;2023-12-29T09:12:52;97775.13;;;8.17;72.40
75788;BME280;64406;50.024;14.492;2023-12-29T09:15:17;97775.69;;;8.20;71.11
75788;BME280;64406;50.024;14.492;2023-12-29T09:17:43;97781.81;;;8.25;70.77
75788;BME280;64406;50.024;14.492;2023-12-29T09:20:09;97775.13;;;8.28;70.50
75788;BME280;64406;50.024;14.492;2023-12-29T09:22:35;97790.41;;;8.32;70.76
75788;BME280;64406;50.024;14.492;2023-12-29T09:25:01;97787.19;;;8.35;70.26
75788;BME280;64406;50.024;14.492;2023-12-29T09:27:26;97788.25;;;8.39;69.82
75788;BME280;64406;50.024;14.492;2023-12-29T09:29:52;97769.41;;;8.50;70.00
75788;BME280;64406;50.024;14.492;2023-12-29T09:32:18;97772.59;;;8.52;70.00
75788;BME280;64406;50.024;14.492;2023-12-29T09:34:43;97767.22;;;8.57;69.72
75788;BME280;64406;50.024;14.492;2023-12-29T09:37:09;97776.34;;;8.56;69.68
75788;BME280;64406;50.024;14.492;2023-12-29T09:39:35;97782.00;;;8.59;69.60
75788;BME280;64406;50.024;14.492;2023-12-29T09:42:00;97777.38;;;8.65;69.79
75788;BME280;64406;50.024;14.492;2023-12-29T09:44:30;97766.59;;;8.75;69.29
75788;BME280;64406;50.024;14.492;2023-12-29T09:47:02;97780.53;;;8.77;69.53
75788;BME280;64406;50.024;14.492;2023-12-29T09:49:37;97775.66;;;8.84;69.67
75788;BME280;64406;50.024;14.492;2023-12-29T09:52:05;97762.22;;;8.84;69.86
75788;BME280;64406;50.024;14.492;2023-12-29T09:54:31;97754.72;;;8.86;68.82
75788;BME280;64406;50.024;14.492;2023-12-29T09:56:57;97766.75;;;8.94;69.17
75788;BME280;64406;50.024;14.492;2023-12-29T09:59:23;97742.88;;;8.87;68.97
75788;BME280;64406;50.024;14.492;2023-12-29T10:01:51;97751.72;;;8.88;69.44
75788;BME280;64406;50.024;14.492;2023-12-29T10:04:18;97746.03;;;8.94;69.42
75788;BME280;64406;50.024;14.492;2023-12-29T10:06:44;97754.63;;;8.96;68.92
75788;BME280;64406;50.024;14.492;2023-12-29T10:09:14;97748.16;;;8.97;69.03
75788;BME280;64406;50.024;14.492;2023-12-29T10:11:42;97745.69;;;9.06;68.62
75788;BME280;64406;50.024;14.492;2023-12-29T10:16:53;97756.72;;;9.05;68.53
75788;BME280;64406;50.024;14.492;2023-12-29T10:22:18;97759.31;;;9.15;68.23
75788;BME280;64406;50.024;14.492;2023-12-29T10:24:46;97753.91;;;9.20;68.07
75788;BME280;64406;50.024;14.492;2023-12-29T10:27:13;97750.09;;;9.26;67.08
75788;BME280;64406;50.024;14.492;2023-12-29T10:29:38;97753.03;;;9.30;67.63
75788;BME280;64406;50.024;14.492;2023-12-29T10:32:04;97737.16;;;9.33;67.08
75788;BME280;64406;50.024;14.492;2023-12-29T10:34:30;97742.38;;;9.48;66.50
75788;BME280;64406;50.024;14.492;2023-12-29T10:36:58;97766.03;;;9.51;66.27
75788;BME280;64406;50.024;14.492;2023-12-29T10:39:24;97741.16;;;9.65;65.48
75788;BME280;64406;50.024;14.492;2023-12-29T10:42:02;97731.53;;;9.59;65.07
75788;BME280;64406;50.024;14.492;2023-12-29T10:44:28;97734.06;;;9.74;65.15
75788;BME280;64406;50.024;14.492;2023-12-29T10:46:54;97734.00;;;9.79;65.01
75788;BME280;64406;50.024;14.492;2023-12-29T10:49:19;97716.00;;;9.79;64.84
75788;BME280;64406;50.024;14.492;2023-12-29T10:51:45;97731.94;;;9.95;64.61
75788;BME280;64406;50.024;14.492;2023-12-29T10:54:19;97734.09;;;9.69;64.67
75788;BME280;64406;50.024;14.492;2023-12-29T10:57:00;97717.34;;;9.77;64.45
75788;BME280;64406;50.024;14.492;2023-12-29T10:59:26;97724.09;;;9.74;64.09
75788;BME280;64406;50.024;14.492;2023-12-29T11:01:52;97714.53;;;9.63;63.94
75788;BME280;64406;50.024;14.492;2023-12-29T11:04:22;97720.16;;;9.67;64.30
75788;BME280;64406;50.024;14.492;2023-12-29T11:06:48;97733.34;;;9.63;63.67
75788;BME280;64406;50.024;14.492;2023-12-29T11:09:32;97717.84;;;9.55;63.77
75788;BME280;64406;50.024;14.492;2023-12-29T11:12:01;97732.41;;;9.49;63.45
75788;BME280;64406;50.024;14.492;2023-12-29T11:14:27;97723.09;;;9.41;63.64
75788;BME280;64406;50.024;14.492;2023-12-29T11:16:57;97705.06;;;9.42;63.29
75788;BME280;64406;50.024;14.492;2023-12-29T11:19:23;97713.56;;;9.54;63.69
75788;BME280;64406;50.024;14.492;2023-12-29T11:21:52;97703.13;;;9.47;63.77
75788;BME280;64406;50.024;14.492;2023-12-29T11:24:21;97708.94;;;9.31;63.62
75788;BME280;64406;50.024;14.492;2023-12-29T11:26:51;97700.88;;;9.31;63.61
75788;BME280;64406;50.024;14.492;2023-12-29T11:29:17;97699.81;;;9.32;64.00
75788;BME280;64406;50.024;14.492;2023-12-29T11:31:45;97685.56;;;9.31;63.53
75788;BME280;64406;50.024;14.492;2023-12-29T11:34:26;97689.22;;;9.40;63.93
75788;BME280;64406;50.024;14.492;2023-12-29T11:37:05;97693.84;;;9.35;63.58
75788;BME280;64406;50.024;14.492;2023-12-29T11:39:52;97675.06;;;9.30;64.07
75788;BME280;64406;50.024;14.492;2023-12-29T11:42:26;97683.38;;;9.33;64.48
75788;BME280;64406;50.024;14.492;2023-12-29T11:44:52;97678.53;;;9.35;64.80
75788;BME280;64406;50.024;14.492;2023-12-29T11:47:37;97691.75;;;9.32;64.26
75788;BME280;64406;50.024;14.492;2023-12-29T11:50:03;97678.06;;;9.28;65.07
75788;BME280;64406;50.024;14.492;2023-12-29T11:52:33;97675.66;;;9.26;65.18
75788;BME280;64406;50.024;14.492;2023-12-29T11:57:35;97660.84;;;9.29;65.37
75788;BME280;64406;50.024;14.492;2023-12-29T12:00:02;97670.00;;;9.28;65.74
75788;BME280;64406;50.024;14.492;2023-12-29T12:02:31;97669.25;;;9.22;65.67
75788;BME280;64406;50.024;14.492;2023-12-29T12:04:56;97664.16;;;9.21;65.72
75788;BME280;64406;50.024;14.492;2023-12-29T12:09:48;97660.84;;;9.29;66.50
75788;BME280;64406;50.024;14.492;2023-12-29T12:12:41;97655.41;;;9.34;65.30
75788;BME280;64406;50.024;14.492;2023-12-29T12:15:33;97642.44;;;9.41;65.79
75788;BME280;64406;50.024;14.492;2023-12-29T12:18:03;97647.19;;;9.49;65.11
75788;BME280;64406;50.024;14.492;2023-12-29T12:20:34;97643.19;;;9.47;65.53
75788;BME280;64406;50.024;14.492;2023-12-29T12:23:06;97650.91;;;9.53;64.30
75788;BME280;64406;50.024;14.492;2023-12-29T12:25:38;97654.41;;;9.54;63.87
75788;BME280;64406;50.024;14.492;2023-12-29T12:28:06;97643.00;;;9.62;64.13
75788;BME280;64406;50.024;14.492;2023-12-29T12:30:35;97634.31;;;9.70;63.68
75788;BME280;64406;50.024;14.492;2023-12-29T12:33:02;97641.88;;;9.68;63.25
75788;BME280;64406;50.024;14.492;2023-12-29T12:35:28;97632.50;;;9.66;63.02
75788;BME280;64406;50.024;14.492;2023-12-29T12:38:07;97637.69;;;9.81;62.43
75788;BME280;64406;50.024;14.492;2023-12-29T12:40:34;97625.69;;;9.73;62.56
75788;BME280;64406;50.024;14.492;2023-12-29T12:43:00;97634.38;;;9.65;61.84
75788;BME280;64406;50.024;14.492;2023-12-29T12:45:26;97623.09;;;9.63;62.25
75788;BME280;64406;50.024;14.492;2023-12-29T12:48:00;97630.31;;;9.68;61.43
75788;BME280;64406;50.024;14.492;2023-12-29T12:50:27;97624.44;;;9.66;61.98
75788;BME280;64406;50.024;14.492;2023-12-29T12:52:52;97635.25;;;9.61;62.15
75788;BME280;64406;50.024;14.492;2023-12-29T12:55:18;97633.69;;;9.54;62.23
75788;BME280;64406;50.024;14.492;2023-12-29T12:57:45;97637.22;;;9.50;62.82
75788;BME280;64406;50.024;14.492;2023-12-29T13:00:11;97632.25;;;9.62;62.36
75788;BME280;64406;50.024;14.492;2023-12-29T13:02:37;97634.19;;;9.57;62.23
75788;BME280;64406;50.024;14.492;2023-12-29T13:05:03;97644.16;;;9.56;61.37
75788;BME280;64406;50.024;14.492;2023-12-29T13:07:34;97647.88;;;9.60;61.81
75788;BME280;64406;50.024;14.492;2023-12-29T13:10:01;97640.88;;;9.64;61.61